createdAt,value
2023-04-01T00:03:38.931Z,5.20
2023-04-01T00:08:43.447Z,6.30
2023-04-01T00:13:47.272Z,6.30
2023-04-01T00:18:52.055Z,5.30
2023-04-01T00:23:55.889Z,6.40
2023-04-01T00:29:00.272Z,6.80
2023-04-01T00:34:04.211Z,5.60
2023-04-01T00:39:09.412Z,7.70
2023-04-01T00:44:24.252Z,7.10
2023-04-01T00:49:42.411Z,8.80
2023-04-01T00:54:48.154Z,7.60
2023-04-01T00:59:54.566Z,7.80
2023-04-01T01:04:58.408Z,7.60
2023-04-01T01:10:19.469Z,8.50
2023-04-01T01:15:34.686Z,11.00
2023-04-01T01:20:44.654Z,10.60
2023-04-01T01:26:11.822Z,9.90
2023-04-01T01:31:22.797Z,10.80
2023-04-01T01:36:31.002Z,12.60
2023-04-01T01:41:36.600Z,10.00
2023-04-01T01:46:41.091Z,15.80
2023-04-01T01:51:45.035Z,9.90
2023-04-01T01:56:53.791Z,10.30
2023-04-01T02:02:00.399Z,12.30
2023-04-01T02:07:08.858Z,10.00
2023-04-01T02:12:14.398Z,11.00
2023-04-01T02:17:20.940Z,12.80
2023-04-01T02:22:27.920Z,12.10
2023-04-01T02:27:32.155Z,9.20
2023-04-01T02:32:39.343Z,11.10
2023-04-01T02:37:43.835Z,9.70
2023-04-01T02:42:47.976Z,10.00
2023-04-01T02:47:51.805Z,8.40
2023-04-01T02:52:55.589Z,8.30
2023-04-01T02:58:00.846Z,8.10
2023-04-01T03:03:05.444Z,8.30
2023-04-01T03:08:09.477Z,7.40
2023-04-01T03:13:13.310Z,7.00
2023-04-01T03:18:18.277Z,7.00
2023-04-01T03:23:22.494Z,7.10
2023-04-01T03:28:27.090Z,8.80
2023-04-01T03:33:31.413Z,8.70
2023-04-01T03:38:36.450Z,6.10
2023-04-01T03:43:40.122Z,7.60
2023-04-01T03:48:43.780Z,9.30
2023-04-01T03:53:47.632Z,6.40
2023-04-01T03:58:51.734Z,4.60
2023-04-01T04:03:55.783Z,6.50
2023-04-01T04:08:59.774Z,8.40
2023-04-01T04:14:04.334Z,5.90
2023-04-01T04:19:08.173Z,5.20
2023-04-01T04:24:13.349Z,5.80
2023-04-01T04:29:38.035Z,7.00
2023-04-01T04:34:42.434Z,6.50
2023-04-01T04:39:46.305Z,7.40
2023-04-01T04:44:50.047Z,6.50
2023-04-01T04:49:53.870Z,3.40
2023-04-01T04:54:58.055Z,3.40
2023-04-01T05:00:01.959Z,3.60
2023-04-01T05:05:18.372Z,5.60
2023-04-01T05:10:23.198Z,4.70
2023-04-01T05:15:27.031Z,7.00
2023-04-01T05:20:32.971Z,5.00
2023-04-01T05:25:39.627Z,6.20
2023-04-01T05:30:45.187Z,3.90
2023-04-01T05:36:26.911Z,3.50
2023-04-01T05:41:31.217Z,4.90
2023-04-01T05:46:35.547Z,6.50
2023-04-01T05:51:56.060Z,4.80
2023-04-01T05:57:00.172Z,3.80
2023-04-01T06:02:04.497Z,5.10
2023-04-01T06:07:16.688Z,5.50
2023-04-01T06:12:47.452Z,3.80
2023-04-01T06:18:29.400Z,5.30
2023-04-01T06:23:58.413Z,4.50
2023-04-01T06:29:18.202Z,5.00
2023-04-01T06:34:40.565Z,3.60
2023-04-01T06:40:09.691Z,4.30
2023-04-01T06:45:48.551Z,5.90
2023-04-01T06:51:33.557Z,7.10
2023-04-01T06:57:01.751Z,6.70
2023-04-01T07:02:11.686Z,7.00
2023-04-01T07:07:40.039Z,6.00
2023-04-01T07:12:51.546Z,7.10
2023-04-01T07:23:40.183Z,10.00
2023-04-01T07:28:59.423Z,5.60
2023-04-01T07:34:28.714Z,5.70
2023-04-01T07:40:12.019Z,5.90
2023-04-01T07:45:43.632Z,4.90
2023-04-01T07:50:57.059Z,5.60
2023-04-01T07:56:28.490Z,5.70
2023-04-01T08:01:47.677Z,4.30
2023-04-01T08:07:04.485Z,8.90
2023-04-01T08:12:15.183Z,5.40
2023-04-01T08:17:48.393Z,6.30
2023-04-01T08:22:58.998Z,4.40
2023-04-01T08:28:18.027Z,7.30
2023-04-01T08:33:29.324Z,6.40
2023-04-01T08:38:51.185Z,6.20
2023-04-01T08:44:26.085Z,5.90
2023-04-01T08:49:36.764Z,4.90
2023-04-01T08:55:06.303Z,7.80
2023-04-01T09:00:51.561Z,5.10
2023-04-01T09:06:31.278Z,6.80
2023-04-01T09:11:49.406Z,9.60
2023-04-01T09:17:21.492Z,5.30
2023-04-01T09:22:48.609Z,7.10
2023-04-01T09:28:03.748Z,6.00
2023-04-01T09:33:51.022Z,3.90
2023-04-01T09:39:02.051Z,5.90
2023-04-01T09:44:35.663Z,7.70
2023-04-01T09:50:19.167Z,2.10
2023-04-01T09:55:41.264Z,1.10
2023-04-01T10:01:07.201Z,1.20
2023-04-01T10:06:14.179Z,2.70
2023-04-01T10:11:17.962Z,1.20
2023-04-01T10:16:44.154Z,1.10
2023-04-01T10:22:06.108Z,2.10
2023-04-01T10:27:35.788Z,2.70
2023-04-01T10:32:57.473Z,2.00
2023-04-01T10:38:35.433Z,2.20
2023-04-01T10:44:10.914Z,3.20
2023-04-01T10:49:24.803Z,2.50
2023-04-01T10:54:57.180Z,3.40
2023-04-01T11:00:57.483Z,3.70
2023-04-01T11:07:03.015Z,5.10
2023-04-01T11:12:38.655Z,3.30
2023-04-01T11:25:20.856Z,2.60
2023-04-01T11:31:12.538Z,2.90
2023-04-01T11:36:39.839Z,2.70
2023-04-01T11:42:07.896Z,4.60
2023-04-01T11:48:08.615Z,3.40
2023-04-01T11:53:34.187Z,4.90
2023-04-01T11:59:03.028Z,2.40
2023-04-01T12:04:31.528Z,3.90
2023-04-01T12:09:41.643Z,3.50
2023-04-01T12:15:05.812Z,3.80
2023-04-01T12:20:27.284Z,3.50
2023-04-01T12:25:54.907Z,3.60
2023-04-01T12:31:27.663Z,3.90
2023-04-01T12:36:40.724Z,4.40
2023-04-01T12:41:57.197Z,2.90
2023-04-01T12:47:36.314Z,3.40
2023-04-01T12:52:49.365Z,4.00
2023-04-01T12:58:32.240Z,2.10
2023-04-01T13:04:00.408Z,3.10
2023-04-01T13:09:31.492Z,3.30
2023-04-01T13:14:54.484Z,2.70
2023-04-01T13:20:19.169Z,5.40
2023-04-01T13:25:33.403Z,3.00
2023-04-01T13:30:50.635Z,6.10
2023-04-01T13:36:13.167Z,2.20
2023-04-01T13:41:56.545Z,2.90
2023-04-01T13:47:29.582Z,2.60
2023-04-01T13:53:04.009Z,2.30
2023-04-01T13:58:17.576Z,3.50
2023-04-01T14:03:43.736Z,3.00
2023-04-01T14:09:27.937Z,2.60
2023-04-01T14:14:50.051Z,2.20
2023-04-01T14:25:39.982Z,2.50
2023-04-01T14:31:02.042Z,2.10
2023-04-01T14:36:24.537Z,2.50
2023-04-01T14:42:03.877Z,2.30
2023-04-01T14:47:46.352Z,4.50
2023-04-01T14:53:21.611Z,4.70
2023-04-01T14:58:42.344Z,3.60
2023-04-01T15:04:09.315Z,3.20
2023-04-01T15:09:38.373Z,3.30
2023-04-01T15:15:11.418Z,4.90
2023-04-01T15:20:56.901Z,7.90
2023-04-01T15:26:15.635Z,9.60
2023-04-01T15:31:24.881Z,14.90
2023-04-01T15:36:39.254Z,16.00
2023-04-01T15:41:55.685Z,12.80
2023-04-01T15:46:59.862Z,17.70
2023-04-01T15:52:26.677Z,16.50
2023-04-01T15:57:39.498Z,13.50
2023-04-01T16:02:49.259Z,13.40
2023-04-01T16:08:18.269Z,16.20
2023-04-01T16:13:45.805Z,21.30
2023-04-01T16:19:10.400Z,18.90
2023-04-01T16:24:22.850Z,18.60
2023-04-01T16:29:46.384Z,19.00
2023-04-01T16:35:23.197Z,17.70
2023-04-01T16:40:48.263Z,17.70
2023-04-01T16:46:16.653Z,19.80
2023-04-01T16:52:48.957Z,28.00
2023-04-01T17:05:16.882Z,23.00
2023-04-01T17:10:54.105Z,27.50
2023-04-01T17:16:30.166Z,31.20
2023-04-01T17:22:03.747Z,28.50
2023-04-01T17:27:18.959Z,23.20
2023-04-01T17:52:25.765Z,35.90
2023-04-01T17:58:22.948Z,32.70
2023-04-01T18:10:40.276Z,34.20
2023-04-01T18:16:00.700Z,40.20
2023-04-01T18:21:32.344Z,44.70
2023-04-01T18:26:43.056Z,41.90
2023-04-01T18:32:04.530Z,42.20
2023-04-01T18:37:32.548Z,38.90
2023-04-01T18:43:03.189Z,43.90
2023-04-01T18:48:44.978Z,46.40
2023-04-01T18:54:07.835Z,50.60
2023-04-01T19:04:35.378Z,45.20
2023-04-01T19:09:49.740Z,42.00
2023-04-01T19:15:10.388Z,44.10
2023-04-01T19:20:28.016Z,47.20
2023-04-01T19:26:08.818Z,49.20
2023-04-01T19:31:41.944Z,40.40
2023-04-01T19:36:52.369Z,39.00
2023-04-01T19:42:03.717Z,41.50
2023-04-01T19:47:22.054Z,41.70
2023-04-01T19:52:42.598Z,37.60
2023-04-01T19:58:18.553Z,39.00
2023-04-01T20:03:34.199Z,40.30
2023-04-01T20:09:17.185Z,38.90
2023-04-01T20:14:39.937Z,46.10
2023-04-01T20:19:58.721Z,43.70
2023-04-01T20:25:48.083Z,45.40
2023-04-01T20:31:12.690Z,44.80
2023-04-01T20:42:00.865Z,46.60
2023-04-01T20:47:46.519Z,43.30
2023-04-01T20:53:36.875Z,46.30
2023-04-01T20:58:59.278Z,46.50
2023-04-01T21:04:26.263Z,46.90
2023-04-01T21:09:41.427Z,49.00
2023-04-01T21:15:04.813Z,45.80
2023-04-01T21:20:25.407Z,45.30
2023-04-01T21:26:04.727Z,51.00
2023-04-01T21:31:24.566Z,48.40
2023-04-01T21:36:48.930Z,51.00
2023-04-01T21:41:52.602Z,56.30
2023-04-01T21:47:21.170Z,53.80
2023-04-01T21:53:12.779Z,47.60
2023-04-01T21:58:19.333Z,56.00
2023-04-01T22:04:01.092Z,47.30
2023-04-01T22:09:05.032Z,46.30
2023-04-01T22:14:29.860Z,56.90
2023-04-01T22:19:40.063Z,44.40
2023-04-01T22:24:59.306Z,50.10
2023-04-01T22:30:25.869Z,48.00
2023-04-01T22:35:48.138Z,42.40
2023-04-01T22:41:10.465Z,38.30
2023-04-01T22:46:14.316Z,44.90
2023-04-01T22:51:46.203Z,37.50
2023-04-01T22:57:01.591Z,34.10
2023-04-01T23:02:10.834Z,36.00
2023-04-01T23:08:13.051Z,31.70
2023-04-01T23:13:28.669Z,28.30
2023-04-01T23:18:57.164Z,25.50
2023-04-01T23:24:13.531Z,23.10
2023-04-01T23:29:19.361Z,25.10
2023-04-01T23:34:50.436Z,24.30
2023-04-01T23:39:56.261Z,20.70
2023-04-01T23:45:03.510Z,22.10
2023-04-01T23:50:23.794Z,25.40
2023-04-01T23:55:31.099Z,22.30
